createdAt,value
2022-09-15T00:01:39.208Z,15.77
2022-09-15T00:04:08.441Z,15.82
2022-09-15T00:06:37.352Z,15.85
2022-09-15T00:09:06.059Z,15.84
2022-09-15T00:11:37.448Z,15.86
2022-09-15T00:14:09.400Z,15.90
2022-09-15T00:16:38.704Z,15.93
2022-09-15T00:19:07.609Z,15.90
2022-09-15T00:21:40.822Z,15.85
2022-09-15T00:24:11.215Z,15.82
2022-09-15T00:26:39.518Z,15.76
2022-09-15T00:29:09.116Z,15.73
2022-09-15T00:31:37.693Z,15.71
2022-09-15T00:34:07.209Z,15.74
2022-09-15T00:36:35.548Z,15.72
2022-09-15T00:39:03.884Z,15.72
2022-09-15T00:41:32.644Z,15.70
2022-09-15T00:44:04.926Z,15.70
2022-09-15T00:46:37.313Z,15.68
2022-09-15T00:49:09.962Z,15.66
2022-09-15T00:51:45.139Z,15.62
2022-09-15T00:54:25.636Z,15.63
2022-09-15T00:57:00.543Z,15.63
2022-09-15T00:59:34.361Z,15.60
2022-09-15T01:02:12.356Z,15.60
2022-09-15T01:04:40.881Z,15.57
2022-09-15T01:07:17.109Z,15.57
2022-09-15T01:09:53.691Z,15.56
2022-09-15T01:12:23.801Z,15.53
2022-09-15T01:14:52.253Z,15.52
2022-09-15T01:17:37.790Z,15.51
2022-09-15T01:20:45.293Z,15.52
2022-09-15T01:24:24.871Z,15.57
2022-09-15T01:27:30.558Z,15.60
2022-09-15T01:30:09.441Z,15.64
2022-09-15T01:33:07.653Z,15.66
2022-09-15T01:35:57.285Z,15.69
2022-09-15T01:38:39.624Z,15.74
2022-09-15T01:41:16.749Z,15.79
2022-09-15T01:43:53.992Z,15.80
2022-09-15T01:46:27.765Z,15.83
2022-09-15T01:48:59.261Z,15.83
2022-09-15T01:51:31.787Z,15.84
2022-09-15T01:54:04.474Z,15.69
2022-09-15T01:56:32.762Z,15.54
2022-09-15T01:59:01.210Z,15.47
2022-09-15T02:01:49.682Z,15.47
2022-09-15T02:04:24.035Z,15.53
2022-09-15T02:07:01.043Z,15.50
2022-09-15T02:09:35.972Z,15.48
2022-09-15T02:12:12.356Z,15.44
2022-09-15T02:14:56.933Z,15.46
2022-09-15T02:17:32.694Z,15.48
2022-09-15T02:20:16.119Z,15.50
2022-09-15T02:22:50.411Z,15.39
2022-09-15T02:25:25.637Z,15.39
2022-09-15T02:28:00.941Z,15.38
2022-09-15T02:30:34.884Z,15.40
2022-09-15T02:33:10.465Z,15.42
2022-09-15T02:35:41.665Z,15.40
2022-09-15T02:38:13.074Z,15.48
2022-09-15T02:40:44.847Z,15.44
2022-09-15T02:43:16.153Z,15.43
2022-09-15T02:45:44.913Z,15.44
2022-09-15T02:48:14.836Z,15.47
2022-09-15T02:50:43.060Z,15.45
2022-09-15T02:53:11.298Z,15.48
2022-09-15T02:55:39.880Z,15.44
2022-09-15T02:58:08.305Z,15.48
2022-09-15T03:00:38.534Z,15.56
2022-09-15T03:03:06.993Z,15.56
2022-09-15T03:05:36.688Z,15.59
2022-09-15T03:08:04.970Z,15.63
2022-09-15T03:10:33.573Z,15.57
2022-09-15T03:13:02.184Z,15.57
2022-09-15T03:15:30.489Z,15.58
2022-09-15T03:17:58.777Z,15.57
2022-09-15T03:20:30.740Z,15.53
2022-09-15T03:23:00.338Z,15.52
2022-09-15T03:25:29.685Z,15.52
2022-09-15T03:27:58.263Z,15.52
2022-09-15T03:30:26.502Z,15.48
2022-09-15T03:32:54.824Z,15.48
2022-09-15T03:35:23.076Z,15.47
2022-09-15T03:37:51.305Z,15.45
2022-09-15T03:40:20.975Z,15.42
2022-09-15T03:42:49.311Z,15.42
2022-09-15T03:45:17.769Z,15.45
2022-09-15T03:47:46.036Z,15.46
2022-09-15T03:50:14.274Z,15.46
2022-09-15T03:52:42.769Z,15.47
2022-09-15T03:55:11.217Z,15.44
2022-09-15T03:57:40.817Z,15.45
2022-09-15T04:00:10.537Z,15.42
2022-09-15T04:02:38.866Z,15.42
2022-09-15T04:05:08.727Z,15.42
2022-09-15T04:07:36.997Z,15.40
2022-09-15T04:10:06.093Z,15.39
2022-09-15T04:12:34.496Z,15.38
2022-09-15T04:15:04.522Z,15.41
2022-09-15T04:17:33.112Z,15.42
2022-09-15T04:20:01.338Z,15.40
2022-09-15T04:22:32.410Z,15.38
2022-09-15T04:25:00.627Z,15.39
2022-09-15T04:27:28.980Z,15.37
2022-09-15T04:29:57.469Z,15.37
2022-09-15T04:32:27.279Z,15.35
2022-09-15T04:34:55.689Z,15.31
2022-09-15T04:37:24.045Z,15.26
2022-09-15T04:39:52.307Z,15.22
2022-09-15T04:42:22.077Z,15.21
2022-09-15T04:44:50.356Z,15.22
2022-09-15T04:47:19.537Z,15.22
2022-09-15T04:49:49.253Z,15.20
2022-09-15T04:52:17.883Z,15.28
2022-09-15T04:54:46.344Z,15.30
2022-09-15T04:57:14.657Z,15.29
2022-09-15T04:59:43.201Z,15.31
2022-09-15T05:02:11.480Z,15.30
2022-09-15T05:04:39.747Z,15.28
2022-09-15T05:07:09.362Z,15.27
2022-09-15T05:09:38.227Z,15.28
2022-09-15T05:12:07.378Z,15.30
2022-09-15T05:14:35.773Z,15.33
2022-09-15T05:17:03.979Z,15.33
2022-09-15T05:19:32.291Z,15.32
2022-09-15T05:22:00.559Z,15.36
2022-09-15T05:24:30.115Z,15.37
2022-09-15T05:26:58.368Z,15.39
2022-09-15T05:29:27.020Z,15.44
2022-09-15T05:31:55.353Z,15.44
2022-09-15T05:34:23.668Z,15.49
2022-09-15T05:36:51.895Z,15.53
2022-09-15T05:39:20.169Z,15.56
2022-09-15T05:41:50.125Z,15.62
2022-09-15T05:44:18.655Z,15.65
2022-09-15T05:46:46.946Z,15.66
2022-09-15T05:49:15.306Z,15.69
2022-09-15T05:51:43.554Z,15.70
2022-09-15T05:54:11.737Z,15.71
2022-09-15T05:56:39.956Z,15.70
2022-09-15T05:59:09.514Z,15.71
2022-09-15T06:01:38.069Z,15.79
2022-09-15T06:04:06.389Z,15.81
2022-09-15T06:06:34.926Z,15.89
2022-09-15T06:09:06.464Z,15.92
2022-09-15T06:11:34.788Z,15.95
2022-09-15T06:14:05.992Z,16.02
2022-09-15T06:16:37.010Z,16.16
2022-09-15T06:19:05.844Z,16.31
2022-09-15T06:21:34.605Z,16.45
2022-09-15T06:24:07.154Z,16.45
2022-09-15T06:26:35.980Z,16.35
2022-09-15T06:29:06.406Z,16.22
2022-09-15T06:31:37.030Z,16.09
2022-09-15T06:34:05.561Z,16.10
2022-09-15T06:36:34.304Z,16.01
2022-09-15T06:39:02.891Z,15.98
2022-09-15T06:41:52.457Z,15.97
2022-09-15T06:44:20.029Z,16.03
2022-09-15T06:46:50.704Z,16.11
2022-09-15T06:49:19.249Z,16.11
2022-09-15T06:51:47.503Z,16.17
2022-09-15T06:54:16.990Z,16.27
2022-09-15T06:56:45.962Z,16.35
2022-09-15T06:59:17.316Z,16.44
2022-09-15T07:01:45.678Z,16.50
2022-09-15T07:04:15.309Z,16.57
2022-09-15T07:06:43.581Z,16.62
2022-09-15T07:09:12.812Z,16.48
2022-09-15T07:11:41.214Z,16.56
2022-09-15T07:14:09.497Z,16.61
2022-09-15T07:16:38.230Z,16.65
2022-09-15T07:19:06.809Z,16.75
2022-09-15T07:21:36.786Z,16.75
2022-09-15T07:24:07.515Z,16.85
2022-09-15T07:26:36.268Z,17.63
2022-09-15T07:29:07.580Z,17.64
2022-09-15T07:31:39.430Z,17.28
2022-09-15T07:34:08.771Z,17.02
2022-09-15T07:36:38.428Z,16.90
2022-09-15T07:39:07.178Z,16.97
2022-09-15T07:41:36.924Z,16.80
2022-09-15T07:44:08.111Z,16.55
2022-09-15T07:46:36.471Z,16.06
2022-09-15T07:49:08.166Z,16.04
2022-09-15T07:51:37.780Z,16.12
2022-09-15T07:54:07.221Z,16.37
2022-09-15T07:56:35.520Z,16.46
2022-09-15T07:59:04.437Z,16.55
2022-09-15T08:01:32.717Z,16.56
2022-09-15T08:04:01.152Z,16.54
2022-09-15T08:06:30.296Z,16.56
2022-09-15T08:09:00.921Z,16.59
2022-09-15T08:11:30.164Z,16.56
2022-09-15T08:14:02.571Z,16.55
2022-09-15T08:16:31.461Z,16.52
2022-09-15T08:18:59.775Z,16.50
2022-09-15T08:21:29.171Z,16.57
2022-09-15T08:24:01.234Z,16.64
2022-09-15T08:26:31.087Z,16.74
2022-09-15T08:29:00.676Z,16.91
2022-09-15T08:31:29.043Z,17.02
2022-09-15T08:33:57.793Z,16.96
2022-09-15T08:36:27.839Z,17.10
2022-09-15T08:38:56.617Z,17.16
2022-09-15T08:41:31.787Z,17.20
2022-09-15T08:44:10.027Z,17.02
2022-09-15T08:46:47.985Z,17.02
2022-09-15T08:49:47.428Z,17.14
2022-09-15T08:52:23.299Z,17.06
2022-09-15T08:54:58.056Z,17.00
2022-09-15T08:57:27.890Z,16.76
2022-09-15T08:59:56.361Z,16.77
2022-09-15T09:02:59.302Z,16.76
2022-09-15T09:05:46.608Z,16.77
2022-09-15T09:08:51.412Z,16.62
2022-09-15T09:11:35.598Z,16.62
2022-09-15T09:14:20.356Z,16.61
2022-09-15T09:17:12.054Z,16.65
2022-09-15T09:20:02.282Z,16.71
2022-09-15T09:22:36.548Z,16.80
2022-09-15T09:25:25.870Z,16.84
2022-09-15T09:27:55.546Z,16.81
2022-09-15T09:30:28.658Z,16.46
2022-09-15T09:33:18.414Z,16.16
2022-09-15T09:35:51.743Z,16.08
2022-09-15T09:38:23.643Z,16.12
2022-09-15T09:40:52.970Z,16.12
2022-09-15T09:43:21.749Z,16.16
2022-09-15T09:45:52.305Z,16.10
2022-09-15T09:48:24.742Z,16.15
2022-09-15T09:50:53.031Z,16.19
2022-09-15T09:53:28.599Z,16.16
2022-09-15T09:56:17.939Z,16.12
2022-09-15T09:58:46.895Z,16.12
2022-09-15T10:01:19.820Z,16.22
2022-09-15T10:03:48.659Z,16.35
2022-09-15T10:06:22.218Z,16.43
2022-09-15T10:08:58.526Z,16.58
2022-09-15T10:11:44.284Z,16.42
2022-09-15T10:14:27.332Z,16.41
2022-09-15T10:17:04.308Z,16.26
2022-09-15T10:19:44.679Z,16.14
2022-09-15T10:22:32.117Z,16.13
2022-09-15T10:25:02.475Z,16.00
2022-09-15T10:27:34.069Z,15.78
2022-09-15T10:30:19.897Z,15.68
2022-09-15T10:32:49.590Z,15.77
2022-09-15T10:35:20.508Z,15.85
2022-09-15T10:38:06.511Z,15.90
2022-09-15T10:40:46.798Z,15.98
2022-09-15T10:43:40.783Z,16.00
2022-09-15T10:46:19.526Z,16.11
2022-09-15T10:49:11.947Z,16.16
2022-09-15T10:52:01.044Z,16.09
2022-09-15T10:55:02.481Z,16.05
2022-09-15T10:58:03.367Z,16.07
2022-09-15T11:00:44.053Z,16.33
2022-09-15T11:03:48.881Z,16.36
2022-09-15T11:06:30.237Z,16.35
2022-09-15T11:09:19.304Z,16.34
2022-09-15T11:12:14.345Z,16.43
2022-09-15T11:15:01.870Z,16.44
2022-09-15T11:17:52.523Z,16.50
2022-09-15T11:21:08.390Z,16.51
2022-09-15T11:23:45.170Z,16.52
2022-09-15T11:26:24.516Z,16.69
2022-09-15T11:28:58.994Z,16.76
2022-09-15T11:31:31.877Z,16.84
2022-09-15T11:34:08.084Z,16.96
2022-09-15T11:36:46.319Z,17.03
2022-09-15T11:39:23.982Z,16.78
2022-09-15T11:41:57.500Z,16.49
2022-09-15T11:44:32.395Z,16.19
2022-09-15T11:47:24.998Z,15.91
2022-09-15T11:50:01.706Z,15.90
2022-09-15T11:52:51.044Z,15.91
2022-09-15T11:55:32.970Z,16.03
2022-09-15T11:58:21.832Z,15.92
2022-09-15T12:00:57.665Z,15.93
2022-09-15T12:03:33.664Z,16.13
2022-09-15T12:06:08.789Z,16.49
2022-09-15T12:08:45.286Z,16.67
2022-09-15T12:11:23.168Z,16.69
2022-09-15T12:13:52.968Z,16.23
2022-09-15T12:16:22.303Z,15.99
2022-09-15T12:18:57.434Z,15.93
2022-09-15T12:21:38.041Z,16.11
2022-09-15T12:24:18.210Z,16.31
2022-09-15T12:26:48.740Z,16.50
2022-09-15T12:29:42.411Z,16.69
2022-09-15T12:32:24.127Z,16.91
2022-09-15T12:35:07.926Z,16.90
2022-09-15T12:37:44.396Z,16.83
2022-09-15T12:40:36.655Z,16.78
2022-09-15T12:43:22.981Z,16.67
2022-09-15T12:45:58.969Z,16.55
2022-09-15T12:48:32.441Z,16.67
2022-09-15T12:51:05.202Z,16.66
2022-09-15T12:53:37.526Z,16.71
2022-09-15T12:56:08.709Z,16.58
2022-09-15T12:58:41.620Z,16.59
2022-09-15T13:01:48.820Z,16.67
2022-09-15T13:04:54.484Z,16.73
2022-09-15T13:07:37.068Z,16.78
2022-09-15T13:10:30.789Z,16.78
2022-09-15T13:13:17.196Z,17.00
2022-09-15T13:15:51.720Z,17.37
2022-09-15T13:18:22.591Z,17.27
2022-09-15T13:21:00.729Z,17.12
2022-09-15T13:23:37.939Z,16.88
2022-09-15T13:26:12.920Z,16.75
2022-09-15T13:28:41.688Z,16.56
2022-09-15T13:31:30.832Z,16.48
2022-09-15T13:35:05.497Z,16.35
2022-09-15T13:38:43.885Z,16.31
2022-09-15T13:42:18.403Z,16.63
2022-09-15T13:45:33.130Z,16.80
2022-09-15T13:48:31.020Z,16.05
2022-09-15T13:51:03.007Z,15.49
2022-09-15T13:53:53.767Z,15.13
2022-09-15T13:56:28.745Z,14.96
2022-09-15T13:59:09.999Z,15.01
2022-09-15T14:01:43.700Z,14.75
2022-09-15T14:04:17.692Z,14.84
2022-09-15T14:06:50.117Z,15.11
2022-09-15T14:09:24.256Z,15.36
2022-09-15T14:11:57.381Z,15.33
2022-09-15T14:14:39.005Z,15.32
2022-09-15T14:17:18.702Z,15.28
2022-09-15T14:19:50.592Z,15.25
2022-09-15T14:22:28.759Z,15.06
2022-09-15T14:24:59.373Z,14.89
2022-09-15T14:27:30.397Z,14.83
2022-09-15T14:30:03.244Z,14.87
2022-09-15T14:32:46.230Z,14.91
2022-09-15T14:35:20.813Z,14.99
2022-09-15T14:37:50.981Z,14.94
2022-09-15T14:40:25.798Z,15.04
2022-09-15T14:42:54.123Z,15.41
2022-09-15T14:48:18.542Z,16.41
2022-09-15T14:50:59.372Z,16.44
2022-09-15T14:53:31.434Z,15.86
2022-09-15T14:56:08.447Z,15.73
2022-09-15T14:58:43.464Z,15.48
2022-09-15T15:01:17.945Z,15.17
2022-09-15T15:03:57.930Z,14.89
2022-09-15T15:06:35.919Z,14.91
2022-09-15T15:09:11.304Z,14.73
2022-09-15T15:11:42.796Z,14.55
2022-09-15T15:14:15.825Z,14.36
2022-09-15T15:16:54.067Z,14.43
2022-09-15T15:19:37.012Z,14.38
2022-09-15T15:22:21.945Z,14.38
2022-09-15T15:24:53.941Z,14.44
2022-09-15T15:27:44.701Z,14.44
2022-09-15T15:30:45.535Z,14.34
2022-09-15T15:33:25.670Z,14.40
2022-09-15T15:36:07.593Z,14.44
2022-09-15T15:38:46.994Z,14.44
2022-09-15T15:41:23.812Z,14.32
2022-09-15T15:44:27.660Z,14.34
2022-09-15T15:46:59.751Z,14.47
2022-09-15T15:49:31.816Z,14.63
2022-09-15T15:52:02.888Z,14.76
2022-09-15T15:54:35.552Z,14.68
2022-09-15T15:57:23.899Z,14.59
2022-09-15T15:59:58.392Z,14.63
2022-09-15T16:02:28.484Z,14.64
2022-09-15T16:04:56.717Z,14.66
2022-09-15T16:07:28.887Z,14.72
2022-09-15T16:10:03.354Z,14.70
2022-09-15T16:12:34.711Z,14.71
2022-09-15T16:15:11.853Z,14.70
2022-09-15T16:17:45.857Z,14.63
2022-09-15T16:20:16.315Z,14.63
2022-09-15T16:22:44.920Z,14.47
2022-09-15T16:25:22.490Z,14.38
2022-09-15T16:27:50.781Z,14.40
2022-09-15T16:30:19.475Z,14.48
2022-09-15T16:32:47.702Z,14.51
2022-09-15T16:35:28.042Z,14.57
2022-09-15T16:37:56.591Z,14.61
2022-09-15T16:40:26.472Z,14.51
2022-09-15T16:42:54.883Z,14.48
2022-09-15T16:45:36.474Z,14.41
2022-09-15T16:48:08.215Z,14.34
2022-09-15T16:50:39.803Z,14.32
2022-09-15T16:53:15.200Z,14.24
2022-09-15T16:55:48.582Z,14.15
2022-09-15T16:58:19.198Z,14.11
2022-09-15T17:00:50.214Z,14.13
2022-09-15T17:03:21.326Z,14.13
2022-09-15T17:05:52.311Z,14.09
2022-09-15T17:08:23.607Z,14.04
2022-09-15T17:10:53.960Z,14.03
2022-09-15T17:13:27.848Z,13.87
2022-09-15T17:15:59.640Z,13.77
2022-09-15T17:18:29.576Z,13.64
2022-09-15T17:20:58.865Z,13.61
2022-09-15T17:23:31.141Z,13.64
2022-09-15T17:26:04.169Z,13.58
2022-09-15T17:28:36.561Z,13.45
2022-09-15T17:31:07.891Z,13.34
2022-09-15T17:33:36.154Z,13.27
2022-09-15T17:36:04.840Z,13.27
2022-09-15T17:38:33.476Z,13.27
2022-09-15T17:41:03.226Z,13.27
2022-09-15T17:43:32.926Z,13.32
2022-09-15T17:46:01.583Z,13.33
2022-09-15T17:48:30.030Z,13.33
2022-09-15T17:51:00.921Z,13.36
2022-09-15T17:53:30.747Z,13.44
2022-09-15T17:55:59.080Z,13.46
2022-09-15T17:58:31.381Z,13.53
2022-09-15T18:01:00.697Z,13.56
2022-09-15T18:03:34.721Z,13.46
2022-09-15T18:06:07.657Z,13.45
2022-09-15T18:08:37.116Z,13.47
2022-09-15T18:11:07.205Z,13.53
2022-09-15T18:13:37.947Z,13.59
2022-09-15T18:16:12.237Z,13.56
2022-09-15T18:18:41.105Z,13.63
2022-09-15T18:21:13.141Z,13.68
2022-09-15T18:23:42.470Z,13.66
2022-09-15T18:26:10.925Z,13.63
2022-09-15T18:28:40.573Z,13.54
2022-09-15T18:31:10.576Z,13.55
2022-09-15T18:33:38.960Z,13.57
2022-09-15T18:36:08.908Z,13.51
2022-09-15T18:38:37.284Z,13.49
2022-09-15T18:41:11.774Z,13.46
2022-09-15T18:43:41.465Z,13.56
2022-09-15T18:46:09.801Z,13.56
2022-09-15T18:48:38.074Z,13.48
2022-09-15T18:51:09.736Z,13.45
2022-09-15T18:53:38.666Z,13.42
2022-09-15T18:56:11.754Z,13.36
2022-09-15T18:58:42.082Z,13.27
2022-09-15T19:01:10.540Z,13.23
2022-09-15T19:03:44.072Z,13.23
2022-09-15T19:06:12.791Z,13.31
2022-09-15T19:08:41.263Z,13.35
2022-09-15T19:11:10.141Z,13.32
2022-09-15T19:13:39.751Z,13.24
2022-09-15T19:16:09.848Z,13.16
2022-09-15T19:18:38.686Z,13.12
2022-09-15T19:21:10.378Z,13.05
2022-09-15T19:23:39.339Z,13.05
2022-09-15T19:26:13.015Z,13.05
2022-09-15T19:28:43.281Z,13.00
2022-09-15T19:31:12.290Z,12.93
2022-09-15T19:33:41.203Z,12.94
2022-09-15T19:36:27.435Z,12.99
2022-09-15T19:38:57.168Z,12.99
2022-09-15T19:41:26.030Z,12.95
2022-09-15T19:43:55.770Z,12.96
2022-09-15T19:46:26.494Z,12.89
2022-09-15T19:48:55.402Z,12.90
2022-09-15T19:51:24.481Z,12.88
2022-09-15T19:53:55.622Z,12.92
2022-09-15T19:56:30.139Z,12.96
2022-09-15T19:59:00.965Z,13.01
2022-09-15T20:01:32.622Z,12.90
2022-09-15T20:04:02.591Z,12.96
2022-09-15T20:06:32.624Z,12.97
2022-09-15T20:09:01.451Z,12.84
2022-09-15T20:11:31.450Z,12.78
2022-09-15T20:14:01.657Z,12.73
2022-09-15T20:16:31.031Z,12.50
2022-09-15T20:18:59.241Z,12.43
2022-09-15T20:21:50.397Z,12.37
2022-09-15T20:24:20.383Z,12.37
2022-09-15T20:26:49.442Z,12.39
2022-09-15T20:29:19.585Z,12.43
2022-09-15T20:31:48.550Z,12.41
2022-09-15T20:34:17.881Z,12.43
2022-09-15T20:36:46.685Z,12.44
2022-09-15T20:39:19.397Z,12.39
2022-09-15T20:41:47.752Z,12.37
2022-09-15T20:44:17.801Z,12.31
2022-09-15T20:46:46.046Z,12.20
2022-09-15T20:49:14.257Z,12.31
2022-09-15T20:51:42.889Z,12.15
2022-09-15T20:54:11.886Z,12.02
2022-09-15T20:56:40.163Z,11.97
2022-09-15T20:59:10.572Z,11.86
2022-09-15T21:01:41.143Z,11.74
2022-09-15T21:04:11.319Z,11.77
2022-09-15T21:06:40.280Z,11.70
2022-09-15T21:09:09.265Z,11.54
2022-09-15T21:11:37.568Z,11.47
2022-09-15T21:14:06.590Z,11.36
2022-09-15T21:16:34.944Z,11.31
2022-09-15T21:19:05.202Z,11.22
2022-09-15T21:21:35.232Z,11.16
2022-09-15T21:24:06.110Z,11.09
2022-09-15T21:26:56.379Z,11.06
2022-09-15T21:29:25.384Z,10.98
2022-09-15T21:31:53.860Z,10.94
2022-09-15T21:34:23.903Z,10.88
2022-09-15T21:36:53.652Z,10.86
2022-09-15T21:39:21.978Z,10.83
2022-09-15T21:41:50.734Z,10.77
2022-09-15T21:44:19.102Z,10.75
2022-09-15T21:46:47.737Z,10.73
2022-09-15T21:49:18.010Z,10.70
2022-09-15T21:51:47.742Z,10.66
2022-09-15T21:54:18.016Z,10.58
2022-09-15T21:56:46.430Z,10.52
2022-09-15T21:59:14.813Z,10.49
2022-09-15T22:01:43.193Z,10.42
2022-09-15T22:04:11.670Z,10.41
2022-09-15T22:06:42.166Z,10.46
2022-09-15T22:09:15.751Z,10.53
2022-09-15T22:11:44.136Z,10.54
2022-09-15T22:14:13.187Z,10.54
2022-09-15T22:16:43.012Z,10.56
2022-09-15T22:19:13.326Z,10.55
2022-09-15T22:21:42.985Z,10.48
2022-09-15T22:24:14.539Z,10.38
2022-09-15T22:26:44.245Z,10.33
2022-09-15T22:29:12.981Z,10.29
2022-09-15T22:31:42.138Z,10.31
2022-09-15T22:34:10.562Z,10.36
2022-09-15T22:36:39.148Z,10.41
2022-09-15T22:39:07.855Z,10.48
2022-09-15T22:41:40.294Z,10.49
2022-09-15T22:44:18.727Z,10.39
2022-09-15T22:46:47.429Z,10.36
2022-09-15T22:49:15.632Z,10.36
2022-09-15T22:51:44.340Z,10.27
2022-09-15T22:54:12.591Z,10.19
2022-09-15T22:56:42.169Z,10.14
2022-09-15T22:59:10.514Z,10.13
2022-09-15T23:01:38.816Z,10.13
2022-09-15T23:04:07.157Z,10.04
2022-09-15T23:06:35.796Z,9.97
2022-09-15T23:09:08.010Z,10.01
2022-09-15T23:11:39.725Z,10.04
2022-09-15T23:14:15.258Z,10.04
2022-09-15T23:16:44.252Z,10.01
2022-09-15T23:19:14.434Z,10.00
2022-09-15T23:21:42.742Z,9.96
2022-09-15T23:24:12.391Z,9.87
2022-09-15T23:26:41.187Z,9.72
2022-09-15T23:29:11.119Z,9.61
2022-09-15T23:31:39.736Z,9.59
2022-09-15T23:34:07.973Z,9.50
2022-09-15T23:36:36.521Z,9.53
2022-09-15T23:39:05.019Z,9.55
2022-09-15T23:41:33.613Z,9.48
2022-09-15T23:44:02.194Z,9.51
2022-09-15T23:46:32.745Z,9.53
2022-09-15T23:49:01.289Z,9.55
2022-09-15T23:51:29.797Z,9.54
2022-09-15T23:53:58.141Z,9.54
2022-09-15T23:56:26.530Z,9.66
2022-09-15T23:58:54.946Z,9.76
